sensor_id;sensor_type;location;lat;lon;timestamp;pressure;altitude;pressure_sealevel;temperature;humidity
37694;BME280;23531;50.122;8.644;2023-03-03T00:00:40;100927.75;;;6.29;49.93
37694;BME280;23531;50.122;8.644;2023-03-03T00:02:41;100930.91;;;6.24;50.10
37694;BME280;23531;50.122;8.644;2023-03-03T00:04:42;100934.75;;;6.30;49.62
37694;BME280;23531;50.122;8.644;2023-03-03T00:06:44;100936.56;;;6.21;50.55
37694;BME280;23531;50.122;8.644;2023-03-03T00:08:46;100938.78;;;6.17;50.58
37694;BME280;23531;50.122;8.644;2023-03-03T00:10:47;100938.09;;;6.24;50.71
37694;BME280;23531;50.122;8.644;2023-03-03T00:12:48;100937.59;;;6.20;50.91
37694;BME280;23531;50.122;8.644;2023-03-03T00:14:51;100943.41;;;6.24;50.77
37694;BME280;23531;50.122;8.644;2023-03-03T00:16:52;100939.44;;;6.03;51.37
37694;BME280;23531;50.122;8.644;2023-03-03T00:18:54;100944.13;;;6.09;51.60
37694;BME280;23531;50.122;8.644;2023-03-03T00:20:56;100947.78;;;6.16;51.79
37694;BME280;23531;50.122;8.644;2023-03-03T00:23:08;100951.44;;;6.15;51.53
37694;BME280;23531;50.122;8.644;2023-03-03T00:25:20;100950.78;;;6.13;51.67
37694;BME280;23531;50.122;8.644;2023-03-03T00:27:26;100955.81;;;6.08;52.08
37694;BME280;23531;50.122;8.644;2023-03-03T00:29:30;100948.78;;;5.99;52.41
37694;BME280;23531;50.122;8.644;2023-03-03T00:31:34;100957.13;;;6.04;52.25
37694;BME280;23531;50.122;8.644;2023-03-03T00:33:38;100962.47;;;6.04;52.79
37694;BME280;23531;50.122;8.644;2023-03-03T00:35:42;100970.47;;;6.04;52.82
37694;BME280;23531;50.122;8.644;2023-03-03T00:37:44;100965.31;;;5.95;53.68
37694;BME280;23531;50.122;8.644;2023-03-03T00:39:45;100962.47;;;5.88;53.46
37694;BME280;23531;50.122;8.644;2023-03-03T00:41:46;100965.16;;;5.96;53.59
37694;BME280;23531;50.122;8.644;2023-03-03T00:43:49;100970.81;;;5.93;53.84
37694;BME280;23531;50.122;8.644;2023-03-03T00:45:50;100970.94;;;5.83;54.43
37694;BME280;23531;50.122;8.644;2023-03-03T00:47:54;100965.94;;;5.80;54.83
37694;BME280;23531;50.122;8.644;2023-03-03T00:49:59;100959.44;;;5.75;54.93
37694;BME280;23531;50.122;8.644;2023-03-03T00:52:18;100966.09;;;5.71;55.24
37694;BME280;23531;50.122;8.644;2023-03-03T00:54:19;100969.75;;;5.78;55.36
37694;BME280;23531;50.122;8.644;2023-03-03T00:56:21;100966.94;;;5.71;55.59
37694;BME280;23531;50.122;8.644;2023-03-03T00:58:23;100971.59;;;5.77;55.48
37694;BME280;23531;50.122;8.644;2023-03-03T01:00:24;100977.09;;;5.76;55.74
37694;BME280;23531;50.122;8.644;2023-03-03T01:02:25;100968.09;;;5.77;55.49
37694;BME280;23531;50.122;8.644;2023-03-03T01:04:28;100968.09;;;5.77;55.40
37694;BME280;23531;50.122;8.644;2023-03-03T01:06:29;100973.59;;;5.67;56.04
37694;BME280;23531;50.122;8.644;2023-03-03T01:08:31;100967.09;;;5.62;56.29
37694;BME280;23531;50.122;8.644;2023-03-03T01:10:33;100965.41;;;5.69;55.81
37694;BME280;23531;50.122;8.644;2023-03-03T01:12:35;100965.78;;;5.74;56.13
37694;BME280;23531;50.122;8.644;2023-03-03T01:14:37;100965.94;;;5.72;55.67
37694;BME280;23531;50.122;8.644;2023-03-03T01:16:39;100971.44;;;5.79;56.10
37694;BME280;23531;50.122;8.644;2023-03-03T01:18:41;100969.44;;;5.81;55.78
37694;BME280;23531;50.122;8.644;2023-03-03T01:20:44;100968.72;;;5.46;56.43
37694;BME280;23531;50.122;8.644;2023-03-03T01:22:45;100969.09;;;5.60;56.60
37694;BME280;23531;50.122;8.644;2023-03-03T01:24:46;100972.44;;;5.62;56.77
37694;BME280;23531;50.122;8.644;2023-03-03T01:26:48;100969.09;;;5.60;56.96
37694;BME280;23531;50.122;8.644;2023-03-03T01:28:49;100974.44;;;5.68;56.96
37694;BME280;23531;50.122;8.644;2023-03-03T01:30:50;100968.75;;;5.63;56.54
37694;BME280;23531;50.122;8.644;2023-03-03T01:32:52;100963.06;;;5.66;57.13
37694;BME280;23531;50.122;8.644;2023-03-03T01:34:56;100965.22;;;5.54;56.88
37694;BME280;23531;50.122;8.644;2023-03-03T01:36:59;100965.06;;;5.56;57.95
37694;BME280;23531;50.122;8.644;2023-03-03T01:39:00;100969.41;;;5.57;58.07
37694;BME280;23531;50.122;8.644;2023-03-03T01:41:02;100960.19;;;5.35;58.31
37694;BME280;23531;50.122;8.644;2023-03-03T01:43:03;100962.72;;;5.44;58.31
37694;BME280;23531;50.122;8.644;2023-03-03T01:45:10;100963.06;;;5.50;58.27
37694;BME280;23531;50.122;8.644;2023-03-03T01:47:13;100951.88;;;5.54;58.20
37694;BME280;23531;50.122;8.644;2023-03-03T01:49:16;100961.41;;;5.48;58.38
37694;BME280;23531;50.122;8.644;2023-03-03T01:51:20;100961.41;;;5.48;58.38
37694;BME280;23531;50.122;8.644;2023-03-03T01:53:27;100958.72;;;5.57;58.35
37694;BME280;23531;50.122;8.644;2023-03-03T01:55:32;100951.34;;;5.18;59.08
37694;BME280;23531;50.122;8.644;2023-03-03T01:57:35;100960.56;;;4.98;59.69
37694;BME280;23531;50.122;8.644;2023-03-03T01:59:39;100955.44;;;5.04;60.43
37694;BME280;23531;50.122;8.644;2023-03-03T02:01:42;100958.66;;;5.16;60.27
37694;BME280;23531;50.122;8.644;2023-03-03T02:03:44;100960.50;;;5.32;59.89
37694;BME280;23531;50.122;8.644;2023-03-03T02:05:45;100952.41;;;5.41;59.73
37694;BME280;23531;50.122;8.644;2023-03-03T02:07:46;100956.53;;;5.36;59.37
37694;BME280;23531;50.122;8.644;2023-03-03T02:09:51;100952.34;;;5.25;59.13
37694;BME280;23531;50.122;8.644;2023-03-03T02:11:56;100951.16;;;5.20;59.71
37694;BME280;23531;50.122;8.644;2023-03-03T02:13:58;100952.66;;;5.22;59.59
37694;BME280;23531;50.122;8.644;2023-03-03T02:15:59;100946.00;;;5.26;59.70
37694;BME280;23531;50.122;8.644;2023-03-03T02:18:02;100950.91;;;4.97;60.03
37694;BME280;23531;50.122;8.644;2023-03-03T02:20:05;100947.59;;;5.03;60.29
37694;BME280;23531;50.122;8.644;2023-03-03T02:22:07;100948.56;;;4.94;61.01
37694;BME280;23531;50.122;8.644;2023-03-03T02:24:11;100951.16;;;5.20;60.68
37694;BME280;23531;50.122;8.644;2023-03-03T02:26:17;100952.81;;;5.21;60.05
37694;BME280;23531;50.122;8.644;2023-03-03T02:28:18;100948.97;;;5.15;60.07
37694;BME280;23531;50.122;8.644;2023-03-03T02:30:21;100947.00;;;5.25;60.40
37694;BME280;23531;50.122;8.644;2023-03-03T02:32:22;100948.69;;;5.26;60.31
37694;BME280;23531;50.122;8.644;2023-03-03T02:34:23;100955.25;;;4.98;61.22
37694;BME280;23531;50.122;8.644;2023-03-03T02:36:25;100962.44;;;5.05;60.80
37694;BME280;23531;50.122;8.644;2023-03-03T02:38:28;100955.53;;;4.87;60.84
37694;BME280;23531;50.122;8.644;2023-03-03T02:40:32;100954.81;;;4.77;62.11
37694;BME280;23531;50.122;8.644;2023-03-03T02:42:36;100969.22;;;4.92;61.82
37694;BME280;23531;50.122;8.644;2023-03-03T02:44:37;100961.94;;;5.02;61.46
37694;BME280;23531;50.122;8.644;2023-03-03T02:46:39;100964.31;;;5.13;61.24
37694;BME280;23531;50.122;8.644;2023-03-03T02:48:41;100963.59;;;5.03;61.21
37694;BME280;23531;50.122;8.644;2023-03-03T02:50:42;100960.63;;;5.06;60.87
37694;BME280;23531;50.122;8.644;2023-03-03T02:52:43;100970.63;;;5.12;60.92
37694;BME280;23531;50.122;8.644;2023-03-03T02:54:44;100958.16;;;5.21;60.45
37694;BME280;23531;50.122;8.644;2023-03-03T02:56:46;100964.31;;;5.13;61.11
37694;BME280;23531;50.122;8.644;2023-03-03T02:58:49;100968.28;;;5.09;61.05
37694;BME280;23531;50.122;8.644;2023-03-03T03:00:50;100965.00;;;5.23;60.57
37694;BME280;23531;50.122;8.644;2023-03-03T03:02:51;100963.81;;;5.18;60.56
37694;BME280;23531;50.122;8.644;2023-03-03T03:04:53;100969.09;;;5.01;60.76
37694;BME280;23531;50.122;8.644;2023-03-03T03:06:54;100963.28;;;5.06;60.96
37694;BME280;23531;50.122;8.644;2023-03-03T03:08:55;100965.25;;;4.96;61.08
37694;BME280;23531;50.122;8.644;2023-03-03T03:10:57;100956.78;;;5.08;60.95
37694;BME280;23531;50.122;8.644;2023-03-03T03:12:59;100960.22;;;4.85;61.33
37694;BME280;23531;50.122;8.644;2023-03-03T03:15:01;100970.41;;;4.63;62.23
37694;BME280;23531;50.122;8.644;2023-03-03T03:17:03;100969.94;;;4.16;64.79
37694;BME280;23531;50.122;8.644;2023-03-03T03:19:04;100962.88;;;4.07;66.04
37694;BME280;23531;50.122;8.644;2023-03-03T03:21:07;100960.53;;;4.30;65.01
37694;BME280;23531;50.122;8.644;2023-03-03T03:23:08;100971.78;;;4.16;65.60
37694;BME280;23531;50.122;8.644;2023-03-03T03:25:10;100964.88;;;4.05;65.88
37694;BME280;23531;50.122;8.644;2023-03-03T03:27:11;100960.88;;;3.83;66.45
37694;BME280;23531;50.122;8.644;2023-03-03T03:29:12;100969.66;;;4.01;66.79
37694;BME280;23531;50.122;8.644;2023-03-03T03:31:15;100965.81;;;4.22;66.68
37694;BME280;23531;50.122;8.644;2023-03-03T03:33:16;100966.16;;;4.01;66.28
37694;BME280;23531;50.122;8.644;2023-03-03T03:35:17;100972.88;;;3.87;66.79
37694;BME280;23531;50.122;8.644;2023-03-03T03:37:19;100973.44;;;4.17;67.08
37694;BME280;23531;50.122;8.644;2023-03-03T03:39:20;100970.94;;;3.97;66.60
37694;BME280;23531;50.122;8.644;2023-03-03T03:41:21;100975.97;;;4.00;66.58
37694;BME280;23531;50.122;8.644;2023-03-03T03:43:23;100981.91;;;3.94;66.93
37694;BME280;23531;50.122;8.644;2023-03-03T03:45:24;100982.81;;;3.85;67.34
37694;BME280;23531;50.122;8.644;2023-03-03T03:47:27;100984.19;;;3.89;66.94
37694;BME280;23531;50.122;8.644;2023-03-03T03:49:28;100989.28;;;3.65;67.80
37694;BME280;23531;50.122;8.644;2023-03-03T03:51:29;100988.44;;;3.47;68.82
37694;BME280;23531;50.122;8.644;2023-03-03T03:53:30;100991.59;;;3.33;69.57
37694;BME280;23531;50.122;8.644;2023-03-03T03:55:32;100983.91;;;3.29;70.56
37694;BME280;23531;50.122;8.644;2023-03-03T03:57:33;100982.97;;;3.48;69.25
37694;BME280;23531;50.122;8.644;2023-03-03T03:59:34;100979.91;;;3.43;69.57
37694;BME280;23531;50.122;8.644;2023-03-03T04:01:36;100974.84;;;3.50;69.78
37694;BME280;23531;50.122;8.644;2023-03-03T04:03:38;100976.75;;;3.57;69.14
37694;BME280;23531;50.122;8.644;2023-03-03T04:05:40;100980.06;;;3.42;69.44
37694;BME280;23531;50.122;8.644;2023-03-03T04:07:41;100976.00;;;3.20;70.34
37694;BME280;23531;50.122;8.644;2023-03-03T04:09:42;100985.09;;;3.17;70.55
37694;BME280;23531;50.122;8.644;2023-03-03T04:11:44;100978.25;;;3.42;71.17
37694;BME280;23531;50.122;8.644;2023-03-03T04:13:45;100983.81;;;3.67;70.35
37694;BME280;23531;50.122;8.644;2023-03-03T04:15:46;100986.78;;;3.81;69.67
37694;BME280;23531;50.122;8.644;2023-03-03T04:17:47;100987.00;;;4.06;68.44
37694;BME280;23531;50.122;8.644;2023-03-03T04:19:52;100987.59;;;4.17;67.66
37694;BME280;23531;50.122;8.644;2023-03-03T04:21:53;100990.03;;;4.11;67.77
37694;BME280;23531;50.122;8.644;2023-03-03T04:23:54;100994.53;;;3.92;67.63
37694;BME280;23531;50.122;8.644;2023-03-03T04:25:56;100994.66;;;3.55;68.12
37694;BME280;23531;50.122;8.644;2023-03-03T04:27:57;100998.03;;;3.57;68.84
37694;BME280;23531;50.122;8.644;2023-03-03T04:29:58;100995.72;;;3.62;68.84
37694;BME280;23531;50.122;8.644;2023-03-03T04:32:00;100999.56;;;3.60;68.96
37694;BME280;23531;50.122;8.644;2023-03-03T04:34:01;100988.88;;;3.24;70.47
37694;BME280;23531;50.122;8.644;2023-03-03T04:36:04;100984.34;;;3.52;69.73
37694;BME280;23531;50.122;8.644;2023-03-03T04:38:05;100992.94;;;3.64;69.39
37694;BME280;23531;50.122;8.644;2023-03-03T04:40:07;100995.88;;;3.43;69.09
37694;BME280;23531;50.122;8.644;2023-03-03T04:42:09;100990.75;;;3.14;69.70
37694;BME280;23531;50.122;8.644;2023-03-03T04:44:10;100998.13;;;2.93;71.03
37694;BME280;23531;50.122;8.644;2023-03-03T04:46:11;100993.59;;;2.66;72.68
37694;BME280;23531;50.122;8.644;2023-03-03T04:48:12;100992.91;;;2.64;72.76
37694;BME280;23531;50.122;8.644;2023-03-03T04:50:14;101000.88;;;2.64;73.54
37694;BME280;23531;50.122;8.644;2023-03-03T04:52:16;101000.97;;;2.72;72.52
37694;BME280;23531;50.122;8.644;2023-03-03T04:54:18;100995.06;;;2.88;72.38
37694;BME280;23531;50.122;8.644;2023-03-03T04:56:19;101000.38;;;2.88;71.81
37694;BME280;23531;50.122;8.644;2023-03-03T04:58:20;100998.44;;;2.80;72.45
37694;BME280;23531;50.122;8.644;2023-03-03T05:00:22;100993.28;;;3.06;72.25
37694;BME280;23531;50.122;8.644;2023-03-03T05:02:23;101002.16;;;3.24;71.95
37694;BME280;23531;50.122;8.644;2023-03-03T05:04:25;101006.84;;;3.13;70.90
37694;BME280;23531;50.122;8.644;2023-03-03T05:06:26;101016.06;;;2.81;71.94
37694;BME280;23531;50.122;8.644;2023-03-03T05:08:28;101020.47;;;2.53;72.86
37694;BME280;23531;50.122;8.644;2023-03-03T05:10:30;101022.94;;;2.65;73.27
37694;BME280;23531;50.122;8.644;2023-03-03T05:12:31;101013.94;;;2.48;72.86
37694;BME280;23531;50.122;8.644;2023-03-03T05:14:32;101023.47;;;2.02;75.09
37694;BME280;23531;50.122;8.644;2023-03-03T05:16:33;101015.38;;;1.94;75.60
37694;BME280;23531;50.122;8.644;2023-03-03T05:18:35;101021.50;;;1.95;75.86
37694;BME280;23531;50.122;8.644;2023-03-03T05:20:38;101023.75;;;1.99;76.06
37694;BME280;23531;50.122;8.644;2023-03-03T05:22:39;101026.13;;;1.83;76.42
37694;BME280;23531;50.122;8.644;2023-03-03T05:24:42;101019.97;;;1.82;76.75
37694;BME280;23531;50.122;8.644;2023-03-03T05:26:43;101027.38;;;1.89;76.94
37694;BME280;23531;50.122;8.644;2023-03-03T05:28:44;101029.06;;;1.80;77.75
37694;BME280;23531;50.122;8.644;2023-03-03T05:30:46;101025.44;;;2.00;77.55
37694;BME280;23531;50.122;8.644;2023-03-03T05:32:47;101028.75;;;1.83;76.57
37694;BME280;23531;50.122;8.644;2023-03-03T05:34:49;101025.84;;;1.86;76.92
37694;BME280;23531;50.122;8.644;2023-03-03T05:36:51;101028.50;;;1.96;77.08
37694;BME280;23531;50.122;8.644;2023-03-03T05:38:52;101031.00;;;1.68;77.58
37694;BME280;23531;50.122;8.644;2023-03-03T05:40:55;101035.16;;;1.61;77.72
37694;BME280;23531;50.122;8.644;2023-03-03T05:42:57;101029.00;;;1.51;79.51
37694;BME280;23531;50.122;8.644;2023-03-03T05:44:58;101034.88;;;1.55;78.46
37694;BME280;23531;50.122;8.644;2023-03-03T05:46:59;101035.00;;;1.43;79.39
37694;BME280;23531;50.122;8.644;2023-03-03T05:49:01;101036.25;;;1.49;79.34
37694;BME280;23531;50.122;8.644;2023-03-03T05:51:02;101038.19;;;1.47;79.24
37694;BME280;23531;50.122;8.644;2023-03-03T05:53:04;101044.94;;;1.61;79.23
37694;BME280;23531;50.122;8.644;2023-03-03T05:55:05;101044.69;;;1.83;78.10
37694;BME280;23531;50.122;8.644;2023-03-03T05:57:08;101045.50;;;1.64;78.55
37694;BME280;23531;50.122;8.644;2023-03-03T05:59:09;101056.34;;;1.52;79.14
37694;BME280;23531;50.122;8.644;2023-03-03T06:01:11;101056.09;;;1.64;79.28
37694;BME280;23531;50.122;8.644;2023-03-03T06:03:12;101043.25;;;1.69;79.20
37694;BME280;23531;50.122;8.644;2023-03-03T06:05:13;101049.94;;;1.44;79.09
37694;BME280;23531;50.122;8.644;2023-03-03T06:07:14;101045.28;;;1.37;80.54
37694;BME280;23531;50.122;8.644;2023-03-03T06:09:16;101054.69;;;1.60;80.76
37694;BME280;23531;50.122;8.644;2023-03-03T06:11:18;101058.59;;;1.56;79.47
37694;BME280;23531;50.122;8.644;2023-03-03T06:13:20;101071.63;;;1.78;79.41
37694;BME280;23531;50.122;8.644;2023-03-03T06:15:22;101066.75;;;2.12;78.90
37694;BME280;23531;50.122;8.644;2023-03-03T06:17:23;101070.38;;;2.11;78.14
37694;BME280;23531;50.122;8.644;2023-03-03T06:19:24;101062.41;;;2.40;78.04
37694;BME280;23531;50.122;8.644;2023-03-03T06:21:26;101077.22;;;2.04;77.16
37694;BME280;23531;50.122;8.644;2023-03-03T06:23:27;101082.25;;;2.36;77.88
37694;BME280;23531;50.122;8.644;2023-03-03T06:25:29;101079.28;;;2.39;77.12
37694;BME280;23531;50.122;8.644;2023-03-03T06:27:30;101083.75;;;2.48;75.59
37694;BME280;23531;50.122;8.644;2023-03-03T06:29:33;101082.69;;;2.12;76.63
37694;BME280;23531;50.122;8.644;2023-03-03T06:31:34;101094.34;;;1.81;78.31
37694;BME280;23531;50.122;8.644;2023-03-03T06:33:35;101090.47;;;1.85;78.39
37694;BME280;23531;50.122;8.644;2023-03-03T06:35:37;101085.31;;;2.22;78.13
37694;BME280;23531;50.122;8.644;2023-03-03T06:37:38;101088.81;;;2.32;77.29
37694;BME280;23531;50.122;8.644;2023-03-03T06:39:40;101095.91;;;2.51;76.85
37694;BME280;23531;50.122;8.644;2023-03-03T06:41:41;101099.81;;;2.57;76.26
37694;BME280;23531;50.122;8.644;2023-03-03T06:43:42;101091.28;;;2.63;75.36
37694;BME280;23531;50.122;8.644;2023-03-03T06:45:45;101100.94;;;2.06;76.62
37694;BME280;23531;50.122;8.644;2023-03-03T06:47:46;101105.72;;;2.12;77.12
37694;BME280;23531;50.122;8.644;2023-03-03T06:49:47;101104.56;;;2.53;76.60
37694;BME280;23531;50.122;8.644;2023-03-03T06:51:49;101114.91;;;2.66;75.61
37694;BME280;23531;50.122;8.644;2023-03-03T06:53:50;101108.03;;;2.73;74.63
37694;BME280;23531;50.122;8.644;2023-03-03T06:55:53;101114.50;;;2.70;74.27
37694;BME280;23531;50.122;8.644;2023-03-03T06:57:54;101117.97;;;2.71;74.71
37694;BME280;23531;50.122;8.644;2023-03-03T06:59:56;101136.41;;;2.82;74.25
37694;BME280;23531;50.122;8.644;2023-03-03T07:01:59;101127.56;;;2.91;74.01
37694;BME280;23531;50.122;8.644;2023-03-03T07:04:00;101136.63;;;2.98;73.79
37694;BME280;23531;50.122;8.644;2023-03-03T07:06:07;101130.59;;;3.06;73.25
37694;BME280;23531;50.122;8.644;2023-03-03T07:08:10;101137.16;;;3.11;73.39
37694;BME280;23531;50.122;8.644;2023-03-03T07:10:15;101144.31;;;3.11;72.91
37694;BME280;23531;50.122;8.644;2023-03-03T07:12:19;101140.81;;;3.10;72.73
37694;BME280;23531;50.122;8.644;2023-03-03T07:14:21;101148.53;;;3.04;72.94
37694;BME280;23531;50.122;8.644;2023-03-03T07:16:23;101147.56;;;2.85;72.64
37694;BME280;23531;50.122;8.644;2023-03-03T07:18:32;101150.06;;;2.97;72.88
37694;BME280;23531;50.122;8.644;2023-03-03T07:20:34;101156.50;;;2.94;73.30
37694;BME280;23531;50.122;8.644;2023-03-03T07:22:36;101146.28;;;2.99;73.35
37694;BME280;23531;50.122;8.644;2023-03-03T07:24:37;101157.44;;;3.12;72.99
37694;BME280;23531;50.122;8.644;2023-03-03T07:26:38;101156.72;;;3.20;72.58
37694;BME280;23531;50.122;8.644;2023-03-03T07:28:40;101162.75;;;3.12;72.10
37694;BME280;23531;50.122;8.644;2023-03-03T07:30:43;101165.63;;;3.38;73.07
37694;BME280;23531;50.122;8.644;2023-03-03T07:32:45;101172.81;;;3.18;72.01
37694;BME280;23531;50.122;8.644;2023-03-03T07:34:48;101173.78;;;3.27;71.98
37694;BME280;23531;50.122;8.644;2023-03-03T07:36:52;101173.41;;;3.03;72.01
37694;BME280;23531;50.122;8.644;2023-03-03T07:38:54;101181.75;;;3.17;72.73
37694;BME280;23531;50.122;8.644;2023-03-03T07:40:57;101173.59;;;3.28;72.50
37694;BME280;23531;50.122;8.644;2023-03-03T07:42:59;101180.28;;;3.42;72.26
37694;BME280;23531;50.122;8.644;2023-03-03T07:45:00;101167.09;;;3.50;71.64
37694;BME280;23531;50.122;8.644;2023-03-03T07:47:11;101177.25;;;3.37;71.48
37694;BME280;23531;50.122;8.644;2023-03-03T07:49:20;101182.56;;;3.37;71.46
37694;BME280;23531;50.122;8.644;2023-03-03T07:51:24;101188.91;;;3.54;71.15
37694;BME280;23531;50.122;8.644;2023-03-03T07:53:27;101200.53;;;3.53;70.66
37694;BME280;23531;50.122;8.644;2023-03-03T07:55:30;101200.44;;;3.45;70.71
37694;BME280;23531;50.122;8.644;2023-03-03T07:57:33;101202.38;;;3.43;71.10
37694;BME280;23531;50.122;8.644;2023-03-03T07:59:36;101207.44;;;3.46;71.10
37694;BME280;23531;50.122;8.644;2023-03-03T08:01:38;101198.19;;;3.50;71.14
37694;BME280;23531;50.122;8.644;2023-03-03T08:03:41;101192.19;;;3.48;71.27
37694;BME280;23531;50.122;8.644;2023-03-03T08:05:45;101202.16;;;3.36;70.92
37694;BME280;23531;50.122;8.644;2023-03-03T08:07:49;101202.13;;;3.46;71.12
37694;BME280;23531;50.122;8.644;2023-03-03T08:09:51;101205.84;;;3.53;70.59
37694;BME280;23531;50.122;8.644;2023-03-03T08:11:57;101208.75;;;3.69;70.31
37694;BME280;23531;50.122;8.644;2023-03-03T08:14:00;101215.56;;;3.81;70.94
37694;BME280;23531;50.122;8.644;2023-03-03T08:16:01;101206.41;;;3.84;70.01
37694;BME280;23531;50.122;8.644;2023-03-03T08:18:07;101214.06;;;3.69;69.60
37694;BME280;23531;50.122;8.644;2023-03-03T08:22:34;101206.66;;;3.63;69.76
37694;BME280;23531;50.122;8.644;2023-03-03T08:24:37;101205.38;;;3.67;69.32
37694;BME280;23531;50.122;8.644;2023-03-03T08:26:38;101205.06;;;3.43;69.71
37694;BME280;23531;50.122;8.644;2023-03-03T08:28:40;101212.81;;;3.26;70.37
37694;BME280;23531;50.122;8.644;2023-03-03T08:30:41;101212.19;;;3.42;70.18
37694;BME280;23531;50.122;8.644;2023-03-03T08:32:43;101214.66;;;3.53;70.07
37694;BME280;23531;50.122;8.644;2023-03-03T08:34:44;101207.06;;;3.68;70.42
37694;BME280;23531;50.122;8.644;2023-03-03T08:36:45;101207.75;;;3.70;68.96
37694;BME280;23531;50.122;8.644;2023-03-03T08:38:48;101203.81;;;3.37;69.51
37694;BME280;23531;50.122;8.644;2023-03-03T08:40:51;101214.59;;;3.36;70.75
37694;BME280;23531;50.122;8.644;2023-03-03T08:42:52;101216.72;;;3.69;70.29
37694;BME280;23531;50.122;8.644;2023-03-03T08:44:54;101210.47;;;3.60;69.11
37694;BME280;23531;50.122;8.644;2023-03-03T08:46:55;101208.00;;;3.49;70.04
37694;BME280;23531;50.122;8.644;2023-03-03T08:48:57;101216.44;;;3.62;69.60
37694;BME280;23531;50.122;8.644;2023-03-03T08:50:58;101219.66;;;3.66;69.55
37694;BME280;23531;50.122;8.644;2023-03-03T08:52:59;101210.09;;;3.73;69.10
37694;BME280;23531;50.122;8.644;2023-03-03T08:55:00;101213.97;;;3.51;68.88
37694;BME280;23531;50.122;8.644;2023-03-03T08:57:03;101215.22;;;3.57;68.47
37694;BME280;23531;50.122;8.644;2023-03-03T08:59:04;101211.97;;;3.16;70.09
37694;BME280;23531;50.122;8.644;2023-03-03T09:01:05;101222.16;;;3.31;70.42
37694;BME280;23531;50.122;8.644;2023-03-03T09:03:07;101220.34;;;3.31;70.23
37694;BME280;23531;50.122;8.644;2023-03-03T09:05:09;101224.84;;;3.11;71.06
37694;BME280;23531;50.122;8.644;2023-03-03T09:07:11;101224.31;;;2.98;71.62
37694;BME280;23531;50.122;8.644;2023-03-03T09:09:12;101219.72;;;2.81;71.93
37694;BME280;23531;50.122;8.644;2023-03-03T09:11:14;101222.78;;;2.67;72.52
37694;BME280;23531;50.122;8.644;2023-03-03T09:13:20;101234.50;;;2.83;73.89
37694;BME280;23531;50.122;8.644;2023-03-03T09:15:23;101229.28;;;3.30;73.03
37694;BME280;23531;50.122;8.644;2023-03-03T09:17:25;101231.75;;;3.60;71.27
37694;BME280;23531;50.122;8.644;2023-03-03T09:19:29;101225.69;;;3.68;70.59
37694;BME280;23531;50.122;8.644;2023-03-03T09:21:31;101236.41;;;3.76;70.40
37694;BME280;23531;50.122;8.644;2023-03-03T09:23:34;101228.72;;;3.73;69.00
37694;BME280;23531;50.122;8.644;2023-03-03T09:25:35;101229.56;;;3.37;69.19
37694;BME280;23531;50.122;8.644;2023-03-03T09:27:37;101222.50;;;3.55;69.86
37694;BME280;23531;50.122;8.644;2023-03-03T09:29:41;101225.75;;;3.39;70.04
37694;BME280;23531;50.122;8.644;2023-03-03T09:31:42;101224.97;;;3.66;69.67
37694;BME280;23531;50.122;8.644;2023-03-03T09:33:45;101229.91;;;3.51;69.88
37694;BME280;23531;50.122;8.644;2023-03-03T09:35:49;101226.31;;;3.43;70.86
37694;BME280;23531;50.122;8.644;2023-03-03T09:37:51;101237.41;;;3.19;70.76
37694;BME280;23531;50.122;8.644;2023-03-03T09:39:53;101232.09;;;3.19;71.38
37694;BME280;23531;50.122;8.644;2023-03-03T09:42:04;101235.94;;;3.53;71.09
37694;BME280;23531;50.122;8.644;2023-03-03T09:44:11;101224.91;;;3.48;70.36
37694;BME280;23531;50.122;8.644;2023-03-03T09:46:20;101230.22;;;3.85;70.93
37694;BME280;23531;50.122;8.644;2023-03-03T09:48:28;101241.03;;;4.11;70.11
37694;BME280;23531;50.122;8.644;2023-03-03T09:50:35;101233.31;;;4.35;69.19
37694;BME280;23531;50.122;8.644;2023-03-03T09:52:43;101232.34;;;4.54;69.03
37694;BME280;23531;50.122;8.644;2023-03-03T09:54:52;101245.44;;;4.65;68.34
37694;BME280;23531;50.122;8.644;2023-03-03T09:56:58;101229.22;;;4.77;67.97
37694;BME280;23531;50.122;8.644;2023-03-03T09:59:08;101243.31;;;4.69;66.80
37694;BME280;23531;50.122;8.644;2023-03-03T10:01:25;101243.47;;;4.67;66.80
37694;BME280;23531;50.122;8.644;2023-03-03T10:03:38;101245.91;;;4.61;66.81
37694;BME280;23531;50.122;8.644;2023-03-03T10:05:47;101245.91;;;4.61;66.25
37694;BME280;23531;50.122;8.644;2023-03-03T10:07:58;101249.53;;;4.42;66.50
37694;BME280;23531;50.122;8.644;2023-03-03T10:10:02;101250.00;;;4.37;66.79
37694;BME280;23531;50.122;8.644;2023-03-03T10:12:07;101255.63;;;4.52;66.03
37694;BME280;23531;50.122;8.644;2023-03-03T10:19:14;101262.19;;;4.75;65.33
37694;BME280;23531;50.122;8.644;2023-03-03T10:21:19;101259.66;;;4.74;64.04
37694;BME280;23531;50.122;8.644;2023-03-03T10:23:23;101265.19;;;4.27;66.24
37694;BME280;23531;50.122;8.644;2023-03-03T10:25:35;101270.16;;;4.40;66.09
37694;BME280;23531;50.122;8.644;2023-03-03T10:27:45;101283.81;;;4.72;65.80
37694;BME280;23531;50.122;8.644;2023-03-03T10:29:54;101278.56;;;4.81;65.29
37694;BME280;23531;50.122;8.644;2023-03-03T10:32:02;101282.84;;;4.73;64.55
37694;BME280;23531;50.122;8.644;2023-03-03T10:34:14;101279.16;;;4.74;64.78
37694;BME280;23531;50.122;8.644;2023-03-03T10:36:25;101282.50;;;4.77;65.02
37694;BME280;23531;50.122;8.644;2023-03-03T10:38:31;101281.53;;;4.78;64.82
37694;BME280;23531;50.122;8.644;2023-03-03T10:40:35;101277.94;;;4.69;64.58
37694;BME280;23531;50.122;8.644;2023-03-03T10:42:59;101285.88;;;4.79;64.96
37694;BME280;23531;50.122;8.644;2023-03-03T10:45:11;101275.22;;;4.79;63.81
37694;BME280;23531;50.122;8.644;2023-03-03T10:47:21;101273.84;;;4.92;64.01
37694;BME280;23531;50.122;8.644;2023-03-03T10:49:34;101274.44;;;4.86;63.11
37694;BME280;23531;50.122;8.644;2023-03-03T10:51:41;101271.94;;;4.67;64.14
37694;BME280;23531;50.122;8.644;2023-03-03T10:53:45;101279.84;;;4.77;64.37
37694;BME280;23531;50.122;8.644;2023-03-03T10:55:55;101277.56;;;4.99;63.11
37694;BME280;23531;50.122;8.644;2023-03-03T10:58:05;101272.47;;;5.06;62.94